Time;durP1;ratioP1;P1;durP2;ratioP2;P2;SDS_P1;SDS_P2;PMS_P1;PMS_P2;Temp;Humidity;BMP_temperature;BMP_pressure;BME280_temperature;BME280_humidity;BME280_pressure;Samples;Min_cycle;Max_cycle;Signal;HPM_P1;HPM_P2
2023/05/07 00:04:23;;;;;;;;;;;;;;;21.05;45.89;95603.38;10230926;28;1845;-62
2023/05/07 00:09:23;;;;;;;;;;;;;;;21.06;46.21;95604.97;10230917;28;1915;-62
2023/05/07 00:14:24;;;;;;;;;;;;;;;21.06;46.15;95611.00;10239697;28;2376;-62
2023/05/07 00:19:24;;;;;;;;;;;;;;;21.07;46.06;95609.16;10239792;28;1897;-62
2023/05/07 00:24:24;;;;;;;;;;;;;;;21.05;45.96;95614.72;10222724;28;6020;-62
2023/05/07 00:29:25;;;;;;;;;;;;;;;21.05;46.24;95598.13;10234872;28;1874;-62
2023/05/07 00:34:25;;;;;;;;;;;;;;;21.05;45.85;95595.47;10241793;28;1981;-62
2023/05/07 00:39:25;;;;;;;;;;;;;;;21.05;45.98;95592.84;10233910;28;2024;-62
2023/05/07 00:44:26;;;;;;;;;;;;;;;21.03;45.80;95592.34;10237559;28;2009;-62
2023/05/07 00:49:28;;;;;;;;;;;;;;;21.03;45.72;95597.63;10236976;28;2014;-62
2023/05/07 00:54:29;;;;;;;;;;;;;;;21.03;46.01;95600.25;10233857;28;2210;-62
2023/05/07 00:59:30;;;;;;;;;;;;;;;21.02;45.91;95599.44;10236721;28;2206;-62
2023/05/07 01:04:30;;;;;;;;;;;;;;;21.02;45.76;95594.19;10244153;28;2254;-62
2023/05/07 01:09:31;;;;;;;;;;;;;;;21.03;45.89;95593.13;10235724;28;1957;-62
2023/05/07 01:14:32;;;;;;;;;;;;;;;21.01;45.75;95597.88;10239072;28;2307;-62
2023/05/07 01:19:33;;;;;;;;;;;;;;;21.02;46.05;95599.44;10229822;28;2085;-62
2023/05/07 01:24:33;;;;;;;;;;;;;;;21.02;45.81;95596.03;10228916;28;5266;-62
2023/05/07 01:29:34;;;;;;;;;;;;;;;21.01;45.70;95592.59;10235704;28;2078;-62
2023/05/07 01:34:34;;;;;;;;;;;;;;;21.01;45.93;95584.69;10227972;28;1956;-62
2023/05/07 01:39:35;;;;;;;;;;;;;;;21.01;45.87;95586.53;10230668;28;1973;-62
2023/05/07 01:44:36;;;;;;;;;;;;;;;21.00;45.64;95580.47;10235402;28;2116;-62
2023/05/07 01:49:36;;;;;;;;;;;;;;;21.00;45.66;95585.75;10236904;28;1918;-63
2023/05/07 01:54:36;;;;;;;;;;;;;;;21.00;45.67;95580.47;10236095;28;1913;-63
2023/05/07 01:59:36;;;;;;;;;;;;;;;20.99;45.89;95572.84;10238475;28;2048;-63
2023/05/07 02:04:37;;;;;;;;;;;;;;;21.00;45.62;95574.41;10229823;28;1921;-62
2023/05/07 02:09:37;;;;;;;;;;;;;;;20.99;45.69;95584.19;10236205;28;2159;-62
2023/05/07 02:14:37;;;;;;;;;;;;;;;20.99;45.73;95586.81;10233274;28;2013;-62
2023/05/07 02:19:38;;;;;;;;;;;;;;;20.99;45.41;95586.03;10230749;28;2059;-62
2023/05/07 02:24:38;;;;;;;;;;;;;;;20.98;45.71;95585.25;10234893;28;4964;-62
2023/05/07 02:29:38;;;;;;;;;;;;;;;20.99;45.75;95588.66;10231290;28;2211;-62
2023/05/07 02:34:39;;;;;;;;;;;;;;;20.99;45.65;95583.41;10237043;28;2080;-62
2023/05/07 02:39:39;;;;;;;;;;;;;;;20.99;45.43;95580.75;10242180;28;2070;-62
2023/05/07 02:44:39;;;;;;;;;;;;;;;20.97;45.86;95581.06;10228983;28;2054;-62
2023/05/07 02:49:40;;;;;;;;;;;;;;;20.98;45.63;95585.25;10243633;28;2195;-62
2023/05/07 02:54:40;;;;;;;;;;;;;;;20.97;45.59;95582.88;10239312;28;2237;-62
2023/05/07 02:59:41;;;;;;;;;;;;;;;20.98;45.63;95587.09;10241782;28;2290;-62
2023/05/07 03:04:41;;;;;;;;;;;;;;;20.97;45.68;95586.31;10242611;28;2179;-62
2023/05/07 03:09:41;;;;;;;;;;;;;;;20.97;45.73;95581.06;10242543;28;2005;-62
2023/05/07 03:14:42;;;;;;;;;;;;;;;20.96;45.60;95582.09;10238272;28;2111;-62
2023/05/07 03:19:42;;;;;;;;;;;;;;;20.96;45.46;95582.09;10222285;28;2120;-62
2023/05/07 03:24:42;;;;;;;;;;;;;;;20.95;45.61;95580.53;10237754;28;5100;-62
2023/05/07 03:29:43;;;;;;;;;;;;;;;20.96;45.40;95576.03;10246581;28;2237;-63
2023/05/07 03:34:43;;;;;;;;;;;;;;;20.96;45.63;95573.41;10235544;28;2092;-62
2023/05/07 03:39:43;;;;;;;;;;;;;;;20.95;45.51;95577.13;10235752;28;2106;-62
2023/05/07 03:44:43;;;;;;;;;;;;;;;20.95;45.62;95572.63;10243050;28;3094;-62
2023/05/07 03:49:44;;;;;;;;;;;;;;;20.94;45.37;95571.06;10231379;28;2132;-61
2023/05/07 03:54:44;;;;;;;;;;;;;;;20.94;45.55;95573.69;10237152;28;1987;-62
2023/05/07 03:59:44;;;;;;;;;;;;;;;20.94;45.41;95576.31;10241491;28;2347;-62
2023/05/07 04:04:44;;;;;;;;;;;;;;;20.94;45.70;95576.31;10237829;28;2191;-62
2023/05/07 04:09:45;;;;;;;;;;;;;;;20.94;45.33;95592.13;10234390;28;2184;-62
2023/05/07 04:14:45;;;;;;;;;;;;;;;20.94;45.32;95594.78;10233815;28;1972;-61
2023/05/07 04:19:46;;;;;;;;;;;;;;;20.95;45.19;95595.56;10238966;28;2043;-62
2023/05/07 04:24:46;;;;;;;;;;;;;;;20.94;45.44;95607.16;10236048;28;5079;-62
2023/05/07 04:29:47;;;;;;;;;;;;;;;20.93;45.44;95616.94;10233804;28;1989;-62
2023/05/07 04:34:47;;;;;;;;;;;;;;;20.93;45.47;95614.28;10219382;28;2063;-62
2023/05/07 04:39:47;;;;;;;;;;;;;;;20.93;45.50;95613.50;10233508;28;1985;-62
2023/05/07 04:44:48;;;;;;;;;;;;;;;20.92;45.43;95610.06;10236168;28;2036;-62
2023/05/07 04:49:48;;;;;;;;;;;;;;;20.93;45.48;95613.50;10227155;28;1950;-62
2023/05/07 04:54:48;;;;;;;;;;;;;;;20.93;45.48;95602.97;10231611;28;1989;-62
2023/05/07 04:59:48;;;;;;;;;;;;;;;20.93;45.30;95605.59;10239013;28;2343;-62
2023/05/07 05:04:49;;;;;;;;;;;;;;;20.93;45.37;95613.50;10236482;28;1926;-62
2023/05/07 05:09:49;;;;;;;;;;;;;;;20.93;45.64;95624.84;10230482;28;1918;-62
2023/05/07 05:14:49;;;;;;;;;;;;;;;20.92;45.58;95623.25;10240665;28;2124;-62
2023/05/07 05:19:50;;;;;;;;;;;;;;;20.93;45.45;95613.50;10233938;28;1966;-62
2023/05/07 05:24:51;;;;;;;;;;;;;;;20.93;45.34;95616.13;10240050;28;5118;-62
2023/05/07 05:29:51;;;;;;;;;;;;;;;20.92;45.41;95617.19;10236869;28;2191;-61
2023/05/07 05:34:51;;;;;;;;;;;;;;;20.92;45.47;95620.63;10232702;28;1942;-62
2023/05/07 05:39:52;;;;;;;;;;;;;;;20.91;45.29;95619.06;10233039;28;2159;-62
2023/05/07 05:44:52;;;;;;;;;;;;;;;20.92;45.38;95617.19;10227601;28;2032;-62
2023/05/07 05:49:53;;;;;;;;;;;;;;;20.92;45.57;95619.81;10226115;28;2147;-62
2023/05/07 05:54:53;;;;;;;;;;;;;;;20.92;45.55;95620.63;10233964;28;1938;-62
2023/05/07 05:59:53;;;;;;;;;;;;;;;20.93;45.44;95616.94;10230570;28;2414;-62
2023/05/07 06:04:53;;;;;;;;;;;;;;;20.92;45.25;95615.34;10238872;28;2009;-61
2023/05/07 06:09:55;;;;;;;;;;;;;;;20.92;45.49;95615.34;10247868;28;2222;-62
2023/05/07 06:14:55;;;;;;;;;;;;;;;20.91;45.79;95624.31;10245255;28;2060;-62
2023/05/07 06:19:55;;;;;;;;;;;;;;;20.91;45.69;95624.31;10239423;28;1962;-62
2023/05/07 06:24:55;;;;;;;;;;;;;;;20.92;45.46;95620.63;10243383;28;5106;-62
2023/05/07 06:29:56;;;;;;;;;;;;;;;20.92;45.76;95625.88;10249670;28;2487;-62
2023/05/07 06:34:56;;;;;;;;;;;;;;;20.91;45.45;95621.69;10241789;28;1977;-62
2023/05/07 06:39:56;;;;;;;;;;;;;;;20.92;45.42;95625.88;10237002;28;2071;-62
2023/05/07 06:44:56;;;;;;;;;;;;;;;20.92;45.76;95623.25;10237303;28;2004;-62
2023/05/07 06:49:57;;;;;;;;;;;;;;;20.93;45.73;95639.84;10236759;28;1918;-62
2023/05/07 06:54:57;;;;;;;;;;;;;;;20.92;45.70;95635.63;10254415;28;1965;-62
2023/05/07 06:59:57;;;;;;;;;;;;;;;20.93;45.66;95645.13;10234295;28;1906;-62
2023/05/07 07:04:58;;;;;;;;;;;;;;;20.92;45.63;95644.31;10241656;28;3153;-61
2023/05/07 07:09:58;;;;;;;;;;;;;;;20.93;45.67;95637.22;10237812;28;2126;-63
2023/05/07 07:14:58;;;;;;;;;;;;;;;20.92;45.77;95644.31;10237443;28;1914;-62
2023/05/07 07:19:58;;;;;;;;;;;;;;;20.94;46.09;95631.66;10237971;28;1917;-62
2023/05/07 07:24:59;;;;;;;;;;;;;;;20.93;45.99;95638.00;10240556;28;5080;-62
2023/05/07 07:29:59;;;;;;;;;;;;;;;20.95;46.09;95641.16;10238856;28;1894;-61
2023/05/07 07:35:00;;;;;;;;;;;;;;;20.97;46.37;95644.28;10252456;28;1971;-62
2023/05/07 07:40:00;;;;;;;;;;;;;;;21.00;47.02;95648.19;10239485;28;2257;-62
2023/05/07 07:45:00;;;;;;;;;;;;;;;21.02;47.29;95660.06;10239669;28;1965;-61
2023/05/07 07:50:00;;;;;;;;;;;;;;;21.05;47.73;95661.38;10245039;28;1951;-61
2023/05/07 07:55:01;;;;;;;;;;;;;;;21.07;48.07;95653.97;10232478;28;2215;-60
2023/05/07 08:00:02;;;;;;;;;;;;;;;21.11;48.34;95656.81;10241842;28;1974;-60
2023/05/07 08:05:02;;;;;;;;;;;;;;;21.13;48.18;95646.78;10250077;28;2072;-61
2023/05/07 08:10:02;;;;;;;;;;;;;;;21.15;48.18;95650.72;10246449;28;1967;-61
2023/05/07 08:15:03;;;;;;;;;;;;;;;21.18;50.63;95654.66;10248180;28;1907;-61
2023/05/07 08:20:03;;;;;;;;;;;;;;;21.16;49.55;95657.56;10245611;28;2146;-61
2023/05/07 08:25:04;;;;;;;;;;;;;;;21.16;49.01;95656.78;10245913;28;5098;-61
2023/05/07 08:30:04;;;;;;;;;;;;;;;21.16;48.87;95656.78;10243442;28;1967;-61
2023/05/07 08:35:05;;;;;;;;;;;;;;;21.15;49.11;95656.00;10242946;28;1902;-61
2023/05/07 08:40:06;;;;;;;;;;;;;;;21.16;49.12;95656.78;10239600;28;1900;-61
2023/05/07 08:45:09;;;;;;;;;;;;;;;21.16;48.79;95656.78;10239946;28;2334;-60
2023/05/07 08:50:10;;;;;;;;;;;;;;;21.18;48.95;95662.56;10248461;28;1927;-61
2023/05/07 08:55:10;;;;;;;;;;;;;;;21.18;48.73;95660.72;10245131;28;1902;-60
2023/05/07 09:00:10;;;;;;;;;;;;;;;21.17;48.49;95664.41;10248356;28;1919;-60
2023/05/07 09:05:11;;;;;;;;;;;;;;;21.17;48.50;95674.16;10240042;28;1923;-60
2023/05/07 09:10:11;;;;;;;;;;;;;;;21.18;48.34;95673.09;10240183;28;1945;-61
2023/05/07 09:15:12;;;;;;;;;;;;;;;21.18;48.63;95655.44;10236966;28;2284;-60
2023/05/07 09:20:12;;;;;;;;;;;;;;;21.18;48.56;95667.84;10238829;28;1781;-60
2023/05/07 09:25:12;;;;;;;;;;;;;;;21.19;48.77;95653.56;10235167;28;2060;-61
2023/05/07 09:30:13;;;;;;;;;;;;;;;21.20;48.73;95652.53;10247635;28;1922;-60
2023/05/07 09:35:21;;;;;;;;;;;;;;;21.21;48.90;95656.72;10249156;28;1892;-61
2023/05/07 09:40:25;;;;;;;;;;;;;;;21.20;48.96;95647.25;10230707;28;1895;-61
2023/05/07 09:45:25;;;;;;;;;;;;;;;21.22;49.22;95650.41;10246342;28;1876;-60
2023/05/07 09:50:27;;;;;;;;;;;;;;;21.22;49.27;95645.13;10234310;28;8247;-60
2023/05/07 09:55:48;;;;;;;;;;;;;;;21.22;49.29;95645.13;10251968;28;8273;-61
2023/05/07 10:01:08;;;;;;;;;;;;;;;21.25;49.47;95649.81;10239285;28;8011;-60
2023/05/07 10:06:30;;;;;;;;;;;;;;;21.25;49.19;95644.56;10240924;28;2279;-60
2023/05/07 10:11:50;;;;;;;;;;;;;;;21.26;49.42;95648.78;10240270;28;8098;-62
2023/05/07 10:17:11;;;;;;;;;;;;;;;21.26;49.33;95646.94;10240812;28;1895;-63
2023/05/07 10:22:39;;;;;;;;;;;;;;;21.29;49.51;95656.13;10244718;28;1828;-62
2023/05/07 10:28:02;;;;;;;;;;;;;;;21.29;48.84;95654.25;10244979;28;5350;-60
2023/05/07 10:33:24;;;;;;;;;;;;;;;21.29;48.28;95645.59;10240885;28;1948;-61
2023/05/07 10:38:44;;;;;;;;;;;;;;;21.29;47.68;95648.22;10238909;28;1825;-59
2023/05/07 10:44:05;;;;;;;;;;;;;;;21.29;47.65;95654.25;10242894;28;1911;-60
2023/05/07 10:49:26;;;;;;;;;;;;;;;21.29;47.58;95649.00;10248591;28;1423;-60
2023/05/07 10:54:46;;;;;;;;;;;;;;;21.30;47.33;95657.69;10245706;28;1972;-61
2023/05/07 11:00:16;;;;;;;;;;;;;;;21.30;47.26;95645.31;10246191;28;5072;-60
2023/05/07 11:05:37;;;;;;;;;;;;;;;21.33;48.19;95644.72;10243230;28;1900;-60
2023/05/07 11:10:58;;;;;;;;;;;;;;;21.36;49.99;95641.53;10235676;28;1972;-61
2023/05/07 11:16:27;;;;;;;;;;;;;;;21.39;49.51;95645.47;10237582;28;1927;-61
2023/05/07 11:21:48;;;;;;;;;;;;;;;21.41;49.68;95640.72;10233305;28;1894;-61
2023/05/07 11:27:09;;;;;;;;;;;;;;;21.41;49.66;95638.84;10241188;28;1896;-61
2023/05/07 11:32:30;;;;;;;;;;;;;;;21.43;49.32;95635.94;10238417;28;1902;-61
2023/05/07 11:37:50;;;;;;;;;;;;;;;21.44;49.16;95638.28;10236590;28;1876;-61
2023/05/07 11:43:11;;;;;;;;;;;;;;;21.43;49.26;95626.16;10241360;28;1825;-61
2023/05/07 11:48:32;;;;;;;;;;;;;;;21.43;49.39;95631.41;10231717;28;1844;-62
2023/05/07 11:53:52;;;;;;;;;;;;;;;21.43;49.12;95641.22;10232098;28;1985;-61
2023/05/07 11:59:16;;;;;;;;;;;;;;;21.44;48.86;95626.94;10236770;28;5602;-61
2023/05/07 12:04:38;;;;;;;;;;;;;;;21.43;49.19;95638.56;10237323;28;1901;-61
2023/05/07 12:09:58;;;;;;;;;;;;;;;21.45;48.94;95626.66;10235517;28;1930;-60
2023/05/07 12:15:22;;;;;;;;;;;;;;;21.46;48.29;95625.59;10237215;28;1910;-61
2023/05/07 12:20:43;;;;;;;;;;;;;;;21.46;49.02;95614.25;10234937;28;1955;-61
2023/05/07 12:26:03;;;;;;;;;;;;;;;21.50;49.82;95610.78;10236249;28;1916;-62
2023/05/07 12:31:27;;;;;;;;;;;;;;;21.52;50.24;95619.19;10243149;28;1962;-62
2023/05/07 12:36:47;;;;;;;;;;;;;;;21.53;50.45;95601.53;10235698;28;1953;-61
2023/05/07 12:42:08;;;;;;;;;;;;;;;21.54;50.99;95606.50;10238631;28;1877;-61
2023/05/07 12:47:29;;;;;;;;;;;;;;;21.56;50.73;95599.09;10229481;28;1985;-60
2023/05/07 12:52:49;;;;;;;;;;;;;;;21.57;50.68;95594.63;10230477;28;2120;-61
2023/05/07 12:58:19;;;;;;;;;;;;;;;21.55;50.81;95587.00;10223726;28;1850;-61
2023/05/07 13:03:40;;;;;;;;;;;;;;;21.57;50.85;95594.63;10234053;28;1852;-61
2023/05/07 13:09:00;;;;;;;;;;;;;;;21.57;50.91;95591.97;10227571;28;1972;-61
2023/05/07 13:14:21;;;;;;;;;;;;;;;21.56;51.37;95599.09;10233793;28;2047;-61
2023/05/07 13:19:42;;;;;;;;;;;;;;;21.57;51.56;95600.69;10230376;28;1981;-61
2023/05/07 13:25:02;;;;;;;;;;;;;;;21.56;51.71;95604.38;10227396;28;1907;-61
2023/05/07 13:30:23;;;;;;;;;;;;;;;21.57;51.94;95603.31;10233476;28;2108;-61
2023/05/07 13:35:44;;;;;;;;;;;;;;;21.57;51.69;95598.03;10230516;28;1921;-61
2023/05/07 13:41:04;;;;;;;;;;;;;;;21.57;51.88;95600.69;10232655;28;1860;-61
2023/05/07 13:46:25;;;;;;;;;;;;;;;21.58;52.12;95602.25;10231396;28;1888;-61
2023/05/07 13:51:46;;;;;;;;;;;;;;;21.59;52.44;95603.03;10232656;28;2295;-61
2023/05/07 13:57:06;;;;;;;;;;;;;;;21.59;52.45;95610.94;10222624;28;2057;-61
2023/05/07 14:02:27;;;;;;;;;;;;;;;21.59;52.66;95605.66;10224948;28;5310;-61
2023/05/07 14:07:49;;;;;;;;;;;;;;;21.59;52.45;95597.75;10215424;28;1872;-62
2023/05/07 14:13:10;;;;;;;;;;;;;;;21.59;52.51;95597.75;10227232;28;2016;-61
2023/05/07 14:18:30;;;;;;;;;;;;;;;21.59;52.84;95603.81;10228923;28;1962;-61
2023/05/07 14:23:51;;;;;;;;;;;;;;;21.60;52.57;95597.47;10228587;28;2026;-61
2023/05/07 14:29:12;;;;;;;;;;;;;;;21.60;52.73;95596.66;10236067;28;1919;-61
2023/05/07 14:34:32;;;;;;;;;;;;;;;21.59;52.88;95601.19;10238062;28;1910;-61
2023/05/07 14:39:53;;;;;;;;;;;;;;;21.60;52.85;95599.31;10239612;28;1884;-61
2023/05/07 14:45:13;;;;;;;;;;;;;;;21.59;52.93;95603.03;10237095;28;2137;-61
2023/05/07 14:50:34;;;;;;;;;;;;;;;21.59;52.88;95597.75;10233338;28;1920;-61
2023/05/07 14:55:55;;;;;;;;;;;;;;;21.60;52.87;95604.59;10237828;28;1920;-61
2023/05/07 15:01:15;;;;;;;;;;;;;;;21.59;53.20;95608.31;10240184;28;5174;-61
2023/05/07 15:06:36;;;;;;;;;;;;;;;21.58;52.99;95604.88;10238678;28;1856;-61
2023/05/07 15:11:56;;;;;;;;;;;;;;;21.58;53.24;95607.50;10235635;28;1983;-61
2023/05/07 15:17:17;;;;;;;;;;;;;;;21.58;53.33;95606.72;10239803;28;1975;-62
2023/05/07 15:22:37;;;;;;;;;;;;;;;21.57;53.04;95600.69;10236012;28;2050;-61
2023/05/07 15:27:58;;;;;;;;;;;;;;;21.57;53.40;95590.13;10241009;28;1957;-61
2023/05/07 15:33:19;;;;;;;;;;;;;;;21.57;53.24;95598.03;10238884;28;1973;-61
2023/05/07 15:38:40;;;;;;;;;;;;;;;21.58;53.48;95593.53;10230605;28;1884;-62
2023/05/07 15:44:00;;;;;;;;;;;;;;;21.56;53.22;95595.66;10238369;28;2160;-61
2023/05/07 15:49:21;;;;;;;;;;;;;;;21.57;53.18;95592.78;10239097;28;1824;-61
2023/05/07 15:54:42;;;;;;;;;;;;;;;21.56;53.49;95598.31;10239805;28;1902;-61
2023/05/07 16:00:04;;;;;;;;;;;;;;;21.55;53.20;95591.47;10232820;28;4902;-62
2023/05/07 16:05:25;;;;;;;;;;;;;;;21.55;53.26;95586.22;10232322;28;1872;-61
2023/05/07 16:10:45;;;;;;;;;;;;;;;21.54;53.22;95574.06;10228264;28;1904;-62
2023/05/07 16:16:06;;;;;;;;;;;;;;;21.54;53.19;95577.50;10232715;28;1918;-62
2023/05/07 16:21:27;;;;;;;;;;;;;;;21.54;53.19;95579.34;10233306;28;1861;-61
2023/05/07 16:26:47;;;;;;;;;;;;;;;21.53;53.26;95578.59;10235318;28;2016;-62
2023/05/07 16:32:08;;;;;;;;;;;;;;;21.53;53.38;95578.59;10237379;28;2040;-62
2023/05/07 16:37:29;;;;;;;;;;;;;;;21.53;53.34;95588.34;10221000;28;2128;-62
2023/05/07 16:42:49;;;;;;;;;;;;;;;21.52;53.33;95582.28;10239724;28;1888;-61
2023/05/07 16:48:10;;;;;;;;;;;;;;;21.52;53.36;95586.75;10242255;28;1857;-62
2023/05/07 16:53:30;;;;;;;;;;;;;;;21.52;53.21;95586.75;10241358;28;2046;-61
2023/05/07 16:58:51;;;;;;;;;;;;;;;21.51;53.31;95586.00;10236078;28;5208;-62
2023/05/07 17:04:13;;;;;;;;;;;;;;;21.51;53.43;95591.28;10237141;28;2029;-62
2023/05/07 17:09:33;;;;;;;;;;;;;;;21.53;53.24;95593.63;10230269;28;1856;-62
2023/05/07 17:14:54;;;;;;;;;;;;;;;21.53;53.58;95598.88;10228556;28;1976;-62
2023/05/07 17:20:15;;;;;;;;;;;;;;;21.53;53.77;95604.16;10234246;28;1856;-62
2023/05/07 17:25:36;;;;;;;;;;;;;;;21.53;53.69;95610.22;10232241;28;2038;-62
2023/05/07 17:36:56;;;;;;;;;;;;;;;21.53;53.82;95620.00;10190462;28;8070;-62
2023/05/07 17:42:17;;;;;;;;;;;;;;;21.53;54.01;95627.91;10229893;28;7990;-62
2023/05/07 17:47:37;;;;;;;;;;;;;;;21.53;53.58;95633.19;10230185;28;2966;-63
2023/05/07 17:52:58;;;;;;;;;;;;;;;21.52;53.88;95629.75;10235739;28;1982;-63
2023/05/07 17:58:19;;;;;;;;;;;;;;;21.54;53.88;95637.38;10227261;28;2035;-63
2023/05/07 18:03:39;;;;;;;;;;;;;;;21.53;53.73;95641.09;10235674;28;1991;-63
2023/05/07 18:09:00;;;;;;;;;;;;;;;21.53;53.79;95647.16;10240919;28;8051;-62
2023/05/07 18:14:24;;;;;;;;;;;;;;;21.52;53.76;95658.75;10240303;28;2942;-63
2023/05/07 18:19:45;;;;;;;;;;;;;;;21.53;53.91;95659.56;10240797;28;2021;-63
2023/05/07 18:25:06;;;;;;;;;;;;;;;21.54;53.98;95661.09;10239390;28;1920;-63
2023/05/07 18:30:26;;;;;;;;;;;;;;;21.53;54.14;95664.81;10236545;28;1951;-63
2023/05/07 18:35:47;;;;;;;;;;;;;;;21.53;53.94;95667.47;10239184;28;1926;-63
2023/05/07 18:41:07;;;;;;;;;;;;;;;21.55;54.08;95670.59;10235539;28;8393;-62
2023/05/07 18:46:28;;;;;;;;;;;;;;;21.54;54.16;95672.44;10225769;28;1998;-63
2023/05/07 18:51:28;;;;;;;;;;;;;;;21.55;53.97;95678.50;10230482;28;7333;-65
2023/05/07 18:56:28;;;;;;;;;;;;;;;21.54;53.98;95685.63;10228650;28;8241;-64
2023/05/07 19:01:29;;;;;;;;;;;;;;;21.52;53.97;95681.69;10232915;28;2018;-65
2023/05/07 19:06:30;;;;;;;;;;;;;;;21.51;53.85;95696.75;10227970;28;8093;-60
2023/05/07 19:11:30;;;;;;;;;;;;;;;21.51;54.01;95698.59;10213193;29;2320;-63
2023/05/07 19:16:30;;;;;;;;;;;;;;;21.51;53.58;95714.44;10233065;28;1903;-60
2023/05/07 19:21:31;;;;;;;;;;;;;;;21.49;53.59;95714.72;10231802;28;5312;-62
2023/05/07 19:26:31;;;;;;;;;;;;;;;21.51;53.64;95722.34;10221866;28;1985;-63
2023/05/07 19:31:32;;;;;;;;;;;;;;;21.51;54.13;95730.25;10227331;28;1942;-64
2023/05/07 19:36:33;;;;;;;;;;;;;;;21.51;54.11;95731.06;10228590;28;1867;-61
2023/05/07 19:41:33;;;;;;;;;;;;;;;21.52;53.92;95750.28;10234198;28;1890;-64
2023/05/07 19:46:33;;;;;;;;;;;;;;;21.51;53.65;95751.34;10234948;29;1995;-61
2023/05/07 19:51:34;;;;;;;;;;;;;;;21.50;53.68;95755.03;10229765;28;2032;-61
2023/05/07 19:56:34;;;;;;;;;;;;;;;21.52;54.28;95760.81;10233581;28;4881;-62
2023/05/07 20:01:35;;;;;;;;;;;;;;;21.52;54.46;95761.63;10230245;28;1927;-62
2023/05/07 20:06:35;;;;;;;;;;;;;;;21.52;54.59;95760.81;10230286;28;2027;-60
2023/05/07 20:11:35;;;;;;;;;;;;;;;21.54;54.64;95770.03;10228860;28;1935;-61
2023/05/07 20:16:36;;;;;;;;;;;;;;;21.53;54.82;95771.13;10239633;28;1910;-62
2023/05/07 20:21:36;;;;;;;;;;;;;;;21.54;55.09;95782.44;10233978;28;2005;-63
2023/05/07 20:26:36;;;;;;;;;;;;;;;21.55;55.27;95778.75;10236977;28;1976;-61
2023/05/07 20:31:37;;;;;;;;;;;;;;;21.54;55.28;95783.22;10226018;28;2036;-61
2023/05/07 20:36:37;;;;;;;;;;;;;;;21.54;55.54;95785.06;10228579;28;2031;-61
2023/05/07 20:41:37;;;;;;;;;;;;;;;21.54;55.33;95788.50;10228865;28;2011;-62
2023/05/07 20:46:38;;;;;;;;;;;;;;;21.53;55.45;95789.59;10232681;28;2006;-60
2023/05/07 20:51:38;;;;;;;;;;;;;;;21.53;55.34;95797.50;10228864;28;2030;-59
2023/05/07 20:56:38;;;;;;;;;;;;;;;21.53;55.09;95799.34;10227005;28;5779;-60
2023/05/07 21:01:41;;;;;;;;;;;;;;;21.52;55.46;95808.31;10224767;28;1995;-60
2023/05/07 21:06:42;;;;;;;;;;;;;;;21.53;55.30;95810.69;10222485;28;2028;-61
2023/05/07 21:11:42;;;;;;;;;;;;;;;21.53;55.00;95812.53;10222171;28;1999;-60
2023/05/07 21:16:43;;;;;;;;;;;;;;;21.52;55.31;95813.56;10230466;28;1926;-62
2023/05/07 21:21:43;;;;;;;;;;;;;;;21.52;55.06;95816.22;10236340;28;1943;-60
2023/05/07 21:26:43;;;;;;;;;;;;;;;21.51;55.12;95819.94;10229934;28;1899;-60
2023/05/07 21:31:43;;;;;;;;;;;;;;;21.51;55.07;95820.72;10231383;28;1913;-59
2023/05/07 21:36:44;;;;;;;;;;;;;;;21.51;54.94;95827.84;10238602;28;1918;-60
2023/05/07 21:41:44;;;;;;;;;;;;;;;21.50;54.96;95834.16;10243194;28;1946;-61
2023/05/07 21:46:44;;;;;;;;;;;;;;;21.50;55.14;95836.81;10241049;28;2012;-60
2023/05/07 21:51:45;;;;;;;;;;;;;;;21.50;55.02;95850.00;10246023;28;2102;-61
2023/05/07 21:56:45;;;;;;;;;;;;;;;21.49;54.89;95851.06;10247224;28;5117;-61
2023/05/07 22:01:45;;;;;;;;;;;;;;;21.48;54.89;95849.47;10247351;28;1922;-61
2023/05/07 22:06:46;;;;;;;;;;;;;;;21.48;54.85;95855.53;10246851;28;1891;-60
2023/05/07 22:11:46;;;;;;;;;;;;;;;21.49;54.83;95856.34;10244026;28;2010;-61
2023/05/07 22:16:46;;;;;;;;;;;;;;;21.47;54.85;95859.25;10255091;28;2201;-60
2023/05/07 22:21:46;;;;;;;;;;;;;;;21.47;54.87;95858.47;10244008;28;1864;-60
2023/05/07 22:26:47;;;;;;;;;;;;;;;21.46;54.90;95865.59;10247719;28;1994;-62
2023/05/07 22:31:50;;;;;;;;;;;;;;;21.45;54.84;95866.63;10243938;28;1902;-60
2023/05/07 22:36:51;;;;;;;;;;;;;;;21.46;54.80;95876.13;10249824;28;1907;-61
2023/05/07 22:41:51;;;;;;;;;;;;;;;21.46;54.57;95877.97;10250221;28;1997;-62
2023/05/07 22:46:51;;;;;;;;;;;;;;;21.44;54.41;95886.19;10255850;28;2084;-62
2023/05/07 22:51:52;;;;;;;;;;;;;;;21.44;54.59;95880.91;10250605;28;1965;-60
2023/05/07 22:56:52;;;;;;;;;;;;;;;21.44;54.50;95888.81;10248903;28;5114;-62
2023/05/07 23:01:52;;;;;;;;;;;;;;;21.44;54.43;95882.75;10244521;28;1812;-62
2023/05/07 23:06:53;;;;;;;;;;;;;;;21.44;54.19;95894.09;10239723;28;2067;-62
2023/05/07 23:11:53;;;;;;;;;;;;;;;21.42;54.43;95884.88;10239958;28;1976;-62
2023/05/07 23:16:53;;;;;;;;;;;;;;;21.43;54.42;95891.72;10238928;28;1879;-62
2023/05/07 23:21:53;;;;;;;;;;;;;;;21.41;54.36;95881.44;10235676;28;1966;-62
2023/05/07 23:26:54;;;;;;;;;;;;;;;21.42;54.30;95883.03;10241505;28;1977;-62
2023/05/07 23:31:54;;;;;;;;;;;;;;;21.42;54.39;95890.16;10235521;28;1986;-62
2023/05/07 23:36:54;;;;;;;;;;;;;;;21.41;54.03;95878.78;10236268;28;1871;-61
2023/05/07 23:41:55;;;;;;;;;;;;;;;21.40;54.27;95879.09;10234805;28;2102;-62
2023/05/07 23:46:56;;;;;;;;;;;;;;;21.41;54.00;95884.06;10240755;28;1925;-62
2023/05/07 23:51:56;;;;;;;;;;;;;;;21.41;54.24;95883.31;10236761;28;1998;-62
2023/05/07 23:56:56;;;;;;;;;;;;;;;21.40;54.05;95881.72;10239595;28;5133;-62
